Terminal Aerodrome Forecast
Issued by NWS Des Moines, IA

Home | Current Version | Previous Version | Text Only | Print | Product List | Glossary On
Versions: 1 2 3 4 5 6 7 8 9 10 11 12 13 14 15 16 17 18 19 20 21 22 23 24 25 26 27
000
FTUS43 KDMX 261133
TAFDSM
TAF
KDSM 261133Z 2612/2712 19006KT P6SM FEW060 SCT150
     FM262200 16008KT P6SM VCTS BKN150CB
     FM270000 16007KT 5SM TSRA BR SCT024CB BKN090
     FM270800 13007KT P6SM VCTS BKN035CB=

USA.gov is the U.S. government's official web portal to all federal, state and local government web resources and services.